Time;durP1;ratioP1;P1;durP2;ratioP2;P2;SDS_P1;SDS_P2;PMS_P1;PMS_P2;Temp;Humidity;BMP_temperature;BMP_pressure;BME280_temperature;BME280_humidity;BME280_pressure;Samples;Min_cycle;Max_cycle;Signal;HPM_P1;HPM_P2
2022/08/14 00:00:52;;;;;;;9.18;7.60;;;24.20;99.30;;;;;;5020322;28;20452;-73
2022/08/14 00:03:30;;;;;;;9.10;8.13;;;24.20;99.50;;;;;;5029044;28;20115;-73
2022/08/14 00:05:57;;;;;;;12.07;8.00;;;24.10;99.60;;;;;;5023554;28;20053;-73
2022/08/14 00:08:23;;;;;;;;;;;24.00;99.90;;;;;;5024587;28;20045;-72
2022/08/14 00:10:49;;;;;;;9.17;8.23;;;23.90;99.90;;;;;;5028295;28;20398;-74
2022/08/14 00:13:17;;;;;;;8.48;7.68;;;23.90;99.90;;;;;;5025699;28;20481;-73
2022/08/14 00:15:45;;;;;;;9.88;8.65;;;23.90;99.90;;;;;;5020747;28;20052;-73
2022/08/14 00:18:14;;;;;;;9.52;7.90;;;23.90;99.90;;;;;;5022343;28;20099;-73
2022/08/14 00:20:42;;;;;;;9.68;8.10;;;23.90;99.90;;;;;;5026201;28;20053;-74
2022/08/14 00:23:09;;;;;;;10.20;8.40;;;23.80;99.90;;;;;;5025386;28;20062;-74
2022/08/14 00:25:35;;;;;;;8.50;7.60;;;23.80;99.90;;;;;;5027614;28;20041;-74
2022/08/14 00:28:02;;;;;;;10.32;8.73;;;23.80;99.90;;;;;;5025838;28;20095;-74
2022/08/14 00:30:28;;;;;;;;;;;23.80;99.90;;;;;;5029183;28;20072;-74
2022/08/14 00:32:53;;;;;;;9.50;8.07;;;23.70;99.90;;;;;;5020969;28;20375;-74
2022/08/14 00:35:20;;;;;;;11.15;8.25;;;23.60;99.90;;;;;;5025212;28;20037;-74
2022/08/14 00:37:46;;;;;;;9.30;8.23;;;23.70;99.90;;;;;;5027652;28;20049;-74
2022/08/14 00:40:14;;;;;;;12.10;8.10;;;23.60;99.90;;;;;;5027749;28;20382;-74
2022/08/14 00:42:41;;;;;;;8.73;7.90;;;23.60;99.90;;;;;;5026991;28;20049;-74
2022/08/14 00:45:09;;;;;;;10.13;7.23;;;23.60;99.90;;;;;;5026401;28;20057;-73
2022/08/14 00:47:35;;;;;;;9.63;7.88;;;23.60;99.90;;;;;;5022169;28;20308;-73
2022/08/14 00:50:04;;;;;;;25.83;8.52;;;23.60;99.90;;;;;;5023297;28;20044;-73
2022/08/14 00:52:30;;;;;;;7.97;7.18;;;23.50;99.90;;;;;;5026498;28;20443;-73
2022/08/14 00:54:56;;;;;;;8.40;7.60;;;23.50;99.90;;;;;;5023056;28;20058;-74
2022/08/14 00:57:33;;;;;;;9.25;7.93;;;23.50;99.90;;;;;;5025758;28;20133;-74
2022/08/14 01:00:00;;;;;;;8.82;7.65;;;23.50;99.90;;;;;;5027748;28;20057;-73
2022/08/14 01:02:28;;;;;;;9.77;8.02;;;23.40;99.90;;;;;;5025215;28;20163;-73
2022/08/14 01:04:57;;;;;;;8.23;7.28;;;23.40;99.90;;;;;;5020793;28;20099;-73
2022/08/14 01:07:25;;;;;;;10.80;7.90;;;23.40;99.90;;;;;;5027411;28;20672;-73
2022/08/14 01:09:53;;;;;;;8.60;7.80;;;23.30;99.90;;;;;;5027076;28;20115;-74
2022/08/14 01:12:20;;;;;;;9.02;8.05;;;23.30;99.90;;;;;;5027242;28;20077;-74
2022/08/14 01:14:50;;;;;;;8.52;7.70;;;23.30;99.90;;;;;;5022893;28;20057;-74
2022/08/14 01:17:16;;;;;;;9.27;7.90;;;23.30;99.90;;;;;;5023295;28;20045;-73
2022/08/14 01:22:26;;;;;;;9.18;7.93;;;23.20;99.90;;;;;;5028758;28;20492;-73
2022/08/14 01:24:52;;;;;;;9.25;8.05;;;23.20;99.90;;;;;;5025430;28;20091;-73
2022/08/14 01:27:21;;;;;;;10.90;8.13;;;23.20;99.90;;;;;;5026202;28;20041;-73
2022/08/14 01:29:50;;;;;;;8.82;7.93;;;23.10;99.90;;;;;;5018081;28;20118;-74
2022/08/14 01:32:18;;;;;;;9.10;8.20;;;23.10;99.90;;;;;;5027631;28;20481;-74
2022/08/14 01:34:52;;;;;;;11.27;8.10;;;23.00;99.90;;;;;;5020045;28;20037;-73
2022/08/14 01:37:21;;;;;;;10.27;7.97;;;23.00;99.90;;;;;;5033468;28;20030;-74
2022/08/14 01:39:48;;;;;;;9.20;8.27;;;23.00;99.90;;;;;;5022785;28;20054;-73
2022/08/14 01:42:14;;;;;;;8.73;7.35;;;23.00;99.90;;;;;;5027520;28;20056;-74
2022/08/14 01:44:40;;;;;;;10.40;8.53;;;23.00;99.90;;;;;;5028074;28;20041;-73
2022/08/14 01:47:12;;;;;;;9.68;8.27;;;22.90;99.90;;;;;;5021587;28;20060;-73
2022/08/14 01:49:39;;;;;;;10.52;7.78;;;22.90;99.90;;;;;;5023010;28;20458;-74
2022/08/14 01:52:05;;;;;;;12.60;8.38;;;22.90;99.90;;;;;;5024106;28;21779;-74
2022/08/14 01:54:31;;;;;;;9.57;8.60;;;22.90;99.90;;;;;;5027523;28;20084;-73
2022/08/14 01:56:57;;;;;;;9.73;7.75;;;22.90;99.90;;;;;;5026172;28;20077;-73
2022/08/14 01:59:33;;;;;;;9.75;8.10;;;22.80;99.90;;;;;;5024849;28;20509;-73
2022/08/14 02:02:11;;;;;;;11.32;8.48;;;22.80;99.90;;;;;;5027955;28;20137;-74
2022/08/14 02:04:37;;;;;;;9.23;8.32;;;22.80;99.90;;;;;;5025656;28;20049;-73
2022/08/14 02:07:04;;;;;;;9.32;8.18;;;22.70;99.90;;;;;;5020553;28;20388;-74
2022/08/14 02:09:34;;;;;;;9.65;8.20;;;22.70;99.90;;;;;;5024377;28;20132;-73
2022/08/14 02:12:01;;;;;;;12.10;8.50;;;22.70;99.90;;;;;;5025188;28;20063;-74
2022/08/14 02:14:28;;;;;;;9.40;8.48;;;22.60;99.90;;;;;;5025518;28;20053;-74
2022/08/14 02:16:56;;;;;;;9.35;8.43;;;22.60;99.90;;;;;;5023685;28;20127;-74
2022/08/14 02:19:25;;;;;;;10.93;8.50;;;22.70;99.90;;;;;;5019607;28;20144;-74
2022/08/14 02:21:53;;;;;;;12.25;8.90;;;22.60;99.90;;;;;;5026414;28;20037;-73
2022/08/14 02:24:22;;;;;;;10.32;9.25;;;22.60;99.90;;;;;;5026160;28;20081;-74
2022/08/14 02:26:48;;;;;;;10.55;8.90;;;22.50;99.90;;;;;;5021974;28;20107;-73
2022/08/14 02:29:24;;;;;;;10.00;9.02;;;22.50;99.90;;;;;;5020218;28;20488;-73
2022/08/14 02:31:52;;;;;;;10.48;9.48;;;22.50;99.90;;;;;;5021986;28;20041;-73
2022/08/14 02:34:19;;;;;;;10.57;9.35;;;22.40;99.90;;;;;;5024744;28;20077;-73
2022/08/14 02:36:48;;;;;;;14.75;9.27;;;22.30;99.90;;;;;;5019211;28;20045;-73
2022/08/14 02:39:14;;;;;;;10.73;8.98;;;22.30;99.90;;;;;;5024139;28;20053;-73
2022/08/14 02:41:41;;;;;;;12.02;9.85;;;22.30;99.90;;;;;;5025672;28;20050;-74
2022/08/14 02:44:09;;;;;;;10.75;9.65;;;22.30;99.90;;;;;;5026826;28;20061;-73
2022/08/14 02:46:40;;;;;;;10.05;9.10;;;22.30;99.90;;;;;;5022004;28;20061;-73
2022/08/14 02:49:06;;;;;;;10.35;9.35;;;22.20;99.90;;;;;;5017239;28;20057;-73
2022/08/14 02:51:35;;;;;;;9.55;8.63;;;22.20;99.90;;;;;;5023682;28;20198;-74
2022/08/14 02:54:01;;;;;;;9.68;8.77;;;22.20;99.90;;;;;;5025451;28;20404;-74
2022/08/14 02:56:28;;;;;;;10.27;9.27;;;22.20;99.90;;;;;;5025375;28;20111;-73
2022/08/14 02:58:55;;;;;;;11.38;9.30;;;22.10;99.90;;;;;;5025033;28;20095;-74
2022/08/14 03:01:23;;;;;;;10.23;9.00;;;22.10;99.90;;;;;;5024190;28;20033;-74
2022/08/14 03:03:48;;;;;;;;;;;22.10;99.90;;;;;;5020251;28;20253;-73
2022/08/14 03:06:16;;;;;;;10.77;9.70;;;22.10;99.90;;;;;;5025573;28;19968;-73
2022/08/14 03:08:42;;;;;;;10.95;9.40;;;22.00;99.90;;;;;;5024365;28;20520;-73
2022/08/14 03:11:10;;;;;;;10.02;9.13;;;22.00;99.90;;;;;;5023088;28;20485;-73
2022/08/14 03:13:38;;;;;;;10.68;9.68;;;22.00;99.90;;;;;;5023505;28;20076;-73
2022/08/14 03:16:06;;;;;;;10.40;9.40;;;22.00;99.90;;;;;;5022942;28;20555;-73
2022/08/14 03:18:32;;;;;;;10.63;8.90;;;22.00;99.90;;;;;;5021213;28;20041;-73
2022/08/14 03:21:00;;;;;;;11.27;10.10;;;21.90;99.90;;;;;;5015461;28;20119;-73
2022/08/14 03:23:26;;;;;;;10.20;9.00;;;21.80;99.90;;;;;;5023089;28;20053;-73
2022/08/14 03:25:52;;;;;;;10.85;9.82;;;21.80;99.90;;;;;;5025353;28;20095;-73
2022/08/14 03:28:18;;;;;;;11.05;9.98;;;21.80;99.90;;;;;;5025380;28;20038;-74
2022/08/14 03:30:44;;;;;;;14.27;10.38;;;21.80;99.90;;;;;;5024614;28;20108;-73
2022/08/14 03:33:11;;;;;;;12.65;10.20;;;21.80;99.90;;;;;;5024788;28;20049;-72
2022/08/14 03:35:38;;;;;;;11.30;10.10;;;21.80;99.90;;;;;;5022053;28;20097;-73
2022/08/14 03:38:08;;;;;;;10.40;9.38;;;21.80;99.90;;;;;;5022455;28;20033;-73
2022/08/14 03:40:36;;;;;;;11.45;10.32;;;21.80;99.90;;;;;;5027411;28;20049;-74
2022/08/14 03:43:04;;;;;;;10.85;9.85;;;21.80;99.90;;;;;;5026071;28;20050;-74
2022/08/14 03:45:32;;;;;;;11.13;10.15;;;21.70;99.90;;;;;;5028082;28;20125;-73
2022/08/14 03:47:59;;;;;;;13.32;10.35;;;21.70;99.90;;;;;;5024490;28;20120;-73
2022/08/14 03:50:27;;;;;;;11.07;9.98;;;21.70;99.90;;;;;;5022439;28;20057;-73
2022/08/14 03:52:52;;;;;;;11.20;10.07;;;21.70;99.90;;;;;;5028107;28;20056;-73
2022/08/14 03:55:18;;;;;;;12.00;10.70;;;21.70;99.90;;;;;;5026878;28;20045;-73
2022/08/14 03:57:44;;;;;;;11.07;9.98;;;21.70;99.90;;;;;;5023947;28;20038;-73
2022/08/14 04:00:12;;;;;;;12.10;10.90;;;21.70;99.90;;;;;;5030592;28;20520;-74
2022/08/14 04:02:39;;;;;;;11.80;10.60;;;21.70;99.90;;;;;;5027842;28;20057;-73
2022/08/14 04:05:06;;;;;;;;;;;21.60;99.90;;;;;;5024618;28;20073;-73
2022/08/14 04:07:32;;;;;;;12.43;11.23;;;21.60;99.90;;;;;;5025069;28;20299;-74
2022/08/14 04:09:58;;;;;;;12.15;10.57;;;21.60;99.90;;;;;;5025507;28;20042;-74
2022/08/14 04:12:23;;;;;;;13.48;10.55;;;21.60;99.90;;;;;;5028264;28;20052;-73
2022/08/14 04:14:51;;;;;;;12.00;10.80;;;21.50;99.90;;;;;;5027138;28;20041;-73
2022/08/14 04:17:20;;;;;;;12.63;11.35;;;21.50;99.90;;;;;;5026393;28;20518;-74
2022/08/14 04:19:46;;;;;;;12.00;10.80;;;21.50;99.90;;;;;;5023638;28;20047;-74
2022/08/14 04:22:12;;;;;;;11.95;10.75;;;21.50;99.90;;;;;;5024088;28;20060;-73
2022/08/14 04:24:39;;;;;;;12.07;10.75;;;21.50;99.90;;;;;;5028069;28;20037;-72
2022/08/14 04:27:13;;;;;;;11.95;10.85;;;21.50;99.90;;;;;;5022804;28;20127;-73
2022/08/14 04:29:41;;;;;;;12.23;11.10;;;21.50;99.90;;;;;;5029659;28;20079;-74
2022/08/14 04:32:08;;;;;;;12.55;11.23;;;21.40;99.90;;;;;;5027151;28;20051;-73
2022/08/14 04:34:36;;;;;;;;;;;21.40;99.90;;;;;;5026630;28;20765;-74
2022/08/14 04:45:23;;;;;;;12.40;11.27;;;21.30;99.90;;;;;;5027991;28;20056;-73
2022/08/14 04:50:50;;;;;;;14.68;11.77;;;21.30;99.90;;;;;;5022706;28;20588;-73
2022/08/14 04:53:19;;;;;;;13.25;11.93;;;21.30;99.90;;;;;;5020586;28;20057;-73
2022/08/14 04:55:47;;;;;;;13.82;12.43;;;21.30;99.90;;;;;;5026957;28;20088;-73
2022/08/14 04:58:17;;;;;;;13.77;12.45;;;21.30;99.90;;;;;;5026450;28;20493;-73
2022/08/14 05:00:50;;;;;;;13.73;12.30;;;21.40;99.90;;;;;;5028068;28;20515;-73
2022/08/14 05:03:31;;;;;;;12.75;11.50;;;21.40;99.90;;;;;;5025341;28;20092;-73
2022/08/14 05:05:59;;;;;;;15.30;12.10;;;21.40;99.90;;;;;;5023447;28;20065;-73
2022/08/14 05:08:27;;;;;;;13.07;11.88;;;21.40;99.90;;;;;;5027688;28;20045;-73
2022/08/14 05:10:55;;;;;;;13.80;12.25;;;21.50;99.90;;;;;;5022208;28;20041;-73
2022/08/14 05:13:24;;;;;;;13.07;11.68;;;21.50;99.90;;;;;;5024350;28;20054;-74
2022/08/14 05:15:51;;;;;;;12.82;11.63;;;21.50;99.90;;;;;;5024341;28;20107;-74
2022/08/14 05:18:18;;;;;;;;;;;21.50;99.90;;;;;;5024177;28;20107;-74
2022/08/14 05:20:49;;;;;;;15.07;11.88;;;21.50;99.90;;;;;;5019465;28;19935;-73
2022/08/14 05:23:18;;;;;;;12.57;11.27;;;21.60;99.90;;;;;;5027745;28;20405;-73
2022/08/14 05:25:46;;;;;;;12.88;11.55;;;21.60;99.90;;;;;;5022910;28;20069;-73
2022/08/14 05:28:18;;;;;;;12.32;11.13;;;21.70;99.90;;;;;;5028037;28;20041;-73
2022/08/14 05:30:49;;;;;;;14.25;11.18;;;21.70;99.90;;;;;;5026329;28;20128;-74
2022/08/14 05:33:17;;;;;;;13.73;12.43;;;21.80;99.90;;;;;;5022539;28;20045;-73
2022/08/14 05:35:45;;;;;;;12.98;11.60;;;21.80;99.90;;;;;;5023131;28;20038;-73
2022/08/14 05:38:13;;;;;;;14.65;11.80;;;21.80;99.90;;;;;;5028011;28;20055;-74
2022/08/14 05:40:40;;;;;;;12.98;11.27;;;21.90;99.90;;;;;;5025522;28;20041;-74
2022/08/14 05:43:06;;;;;;;13.48;12.05;;;21.90;99.90;;;;;;5019046;28;20171;-73
2022/08/14 05:45:34;;;;;;;12.20;11.10;;;22.00;99.90;;;;;;5025402;28;20121;-73
2022/08/14 05:48:01;;;;;;;13.32;11.80;;;22.10;99.90;;;;;;5022357;28;20120;-74
2022/08/14 05:50:26;;;;;;;12.80;11.57;;;22.10;99.90;;;;;;5025225;28;20037;-73
2022/08/14 05:52:53;;;;;;;13.55;11.43;;;22.20;99.90;;;;;;5023184;28;20520;-73
2022/08/14 05:55:19;;;;;;;12.50;11.30;;;22.20;99.90;;;;;;5023576;28;20045;-73
2022/08/14 05:57:54;;;;;;;13.02;11.73;;;22.30;99.90;;;;;;5028029;28;20045;-74
2022/08/14 06:00:23;;;;;;;12.73;11.43;;;22.40;99.90;;;;;;5025057;28;20041;-74
2022/08/14 06:02:49;;;;;;;12.68;11.45;;;22.30;99.90;;;;;;5024113;28;20057;-74
2022/08/14 06:05:15;;;;;;;14.27;11.75;;;22.40;99.90;;;;;;5024427;28;20546;-74
2022/08/14 06:07:41;;;;;;;13.40;11.90;;;22.50;99.90;;;;;;5027415;28;20045;-74
2022/08/14 06:10:08;;;;;;;13.00;11.63;;;22.60;99.90;;;;;;5024379;28;20064;-74
2022/08/14 06:12:35;;;;;;;14.30;10.93;;;22.60;99.90;;;;;;5019449;28;20037;-75
2022/08/14 06:15:01;;;;;;;12.02;10.95;;;22.60;99.90;;;;;;5024733;28;20045;-74
2022/08/14 06:17:26;;;;;;;13.93;11.45;;;22.70;99.90;;;;;;5022856;28;20480;-74
2022/08/14 06:19:52;;;;;;;13.88;12.23;;;22.70;99.90;;;;;;5020843;28;20072;-74
2022/08/14 06:22:18;;;;;;;11.50;10.43;;;22.80;99.90;;;;;;5024254;28;20127;-74
2022/08/14 06:24:43;;;;;;;11.98;10.80;;;22.80;99.90;;;;;;5027261;28;20045;-74
2022/08/14 06:27:09;;;;;;;11.60;10.50;;;22.90;99.90;;;;;;5022367;28;20060;-74
2022/08/14 06:29:36;;;;;;;12.02;10.57;;;23.00;99.90;;;;;;5025617;28;20057;-77
2022/08/14 06:32:02;;;;;;;11.13;9.35;;;23.00;99.90;;;;;;5024550;28;20049;-76
2022/08/14 06:34:28;;;;;;;11.07;9.90;;;23.10;99.90;;;;;;5026369;28;20115;-75
2022/08/14 06:36:55;;;;;;;11.65;9.45;;;23.20;99.90;;;;;;5020678;28;20111;-76
2022/08/14 06:39:22;;;;;;;12.63;9.93;;;23.20;99.90;;;;;;5022666;28;20492;-76
2022/08/14 06:41:47;;;;;;;10.23;8.63;;;23.30;99.90;;;;;;5024330;28;20499;-78
2022/08/14 06:44:13;;;;;;;9.85;8.82;;;23.40;99.90;;;;;;5021919;28;20041;-73
2022/08/14 06:46:39;;;;;;;12.10;9.60;;;23.50;99.90;;;;;;5022009;28;20045;-78
2022/08/14 06:49:05;;;;;;;10.98;9.35;;;23.60;99.90;;;;;;5023750;28;20071;-79
2022/08/14 06:51:30;;;;;;;9.93;8.93;;;23.60;99.90;;;;;;5026602;28;20116;-81
2022/08/14 06:53:56;;;;;;;13.00;9.40;;;23.70;99.90;;;;;;5028216;28;20106;-78
2022/08/14 06:56:22;;;;;;;12.25;9.30;;;23.80;99.90;;;;;;5027824;28;20053;-78
2022/08/14 06:58:48;;;;;;;10.20;9.05;;;23.90;99.90;;;;;;5024119;28;20042;-77
2022/08/14 07:06:42;;;;;;;9.95;8.88;;;24.10;99.90;;;;;;5023289;28;20079;-77
2022/08/14 07:09:11;;;;;;;11.73;8.60;;;24.10;99.90;;;;;;5026151;28;20068;-79
2022/08/14 07:11:37;;;;;;;9.02;8.20;;;24.20;99.90;;;;;;5026333;28;20045;-79
2022/08/14 07:14:03;;;;;;;9.60;8.25;;;24.20;99.90;;;;;;5020309;28;20512;-79
2022/08/14 07:16:30;;;;;;;9.80;8.80;;;24.40;99.90;;;;;;5023509;28;20095;-83
2022/08/14 07:18:55;;;;;;;9.27;8.40;;;24.40;99.90;;;;;;5025483;28;20041;-85
2022/08/14 07:21:21;;;;;;;9.27;8.38;;;24.50;99.90;;;;;;5023778;28;20475;-76
2022/08/14 07:23:47;;;;;;;10.23;8.02;;;24.60;99.90;;;;;;5023545;28;20041;-82
2022/08/14 07:26:13;;;;;;;10.75;8.60;;;24.70;99.90;;;;;;5026886;28;20099;-86
2022/08/14 07:28:40;;;;;;;9.27;8.35;;;24.70;99.90;;;;;;5012266;28;20076;-88
2022/08/14 07:31:11;;;;;;;8.75;7.95;;;24.80;99.90;;;;;;5025920;28;20037;-85
2022/08/14 07:33:44;;;;;;;9.35;8.35;;;24.90;99.90;;;;;;5026801;28;20054;-83
2022/08/14 07:36:12;;;;;;;8.90;7.63;;;25.00;99.90;;;;;;5021424;28;20057;-84
2022/08/14 07:38:39;;;;;;;8.45;7.68;;;25.10;99.90;;;;;;5027390;28;20116;-88
2022/08/14 07:41:08;;;;;;;8.77;7.90;;;25.20;99.90;;;;;;5024160;28;20465;-85
2022/08/14 07:43:35;;;;;;;8.73;7.82;;;25.20;99.90;;;;;;5026745;28;20049;-88
2022/08/14 07:46:01;;;;;;;10.63;8.13;;;25.30;99.90;;;;;;5021638;28;20037;-77
2022/08/14 07:48:27;;;;;;;9.90;8.55;;;25.40;99.90;;;;;;5013071;28;20112;-81
2022/08/14 07:50:56;;;;;;;8.70;7.80;;;25.50;99.90;;;;;;5019889;28;20034;-79
2022/08/14 07:53:25;;;;;;;9.25;8.02;;;25.50;99.90;;;;;;5022725;28;20047;-78
2022/08/14 07:55:54;;;;;;;9.93;8.00;;;25.60;99.90;;;;;;5019386;28;20096;-85
2022/08/14 07:58:19;;;;;;;8.82;7.80;;;25.70;99.90;;;;;;5024164;28;20140;-81
2022/08/14 08:00:45;;;;;;;8.68;7.72;;;25.80;99.90;;;;;;5016611;28;20065;-86
2022/08/14 08:03:12;;;;;;;8.52;7.65;;;25.80;99.90;;;;;;5024944;28;20077;-83
2022/08/14 08:05:39;;;;;;;;;;;25.90;99.90;;;;;;5028399;28;20037;-84
2022/08/14 08:08:06;;;;;;;8.57;7.78;;;25.90;99.90;;;;;;5024679;28;19956;-86
2022/08/14 08:10:37;;;;;;;9.23;8.25;;;26.00;99.90;;;;;;5026380;28;20033;-85
2022/08/14 08:13:11;;;;;;;8.38;7.50;;;26.10;99.90;;;;;;5020998;28;20080;-83
2022/08/14 08:15:42;;;;;;;8.73;7.70;;;26.10;99.90;;;;;;5023528;28;20060;-84
2022/08/14 08:18:16;;;;;;;8.43;7.57;;;26.20;99.90;;;;;;5022514;28;20095;-85
2022/08/14 08:20:47;;;;;;;8.52;7.72;;;26.30;99.90;;;;;;5026248;28;20045;-87
2022/08/14 08:23:16;;;;;;;7.90;7.20;;;26.40;99.90;;;;;;5025951;28;20066;-89
2022/08/14 08:25:43;;;;;;;8.57;7.70;;;26.40;99.70;;;;;;5029937;28;20041;-89
2022/08/14 08:28:20;;;;;;;8.32;7.53;;;26.50;99.90;;;;;;5030100;28;20048;-90
2022/08/14 08:30:57;;;;;;;8.30;7.50;;;26.60;99.90;;;;;;5028783;28;20052;-87
2022/08/14 08:33:26;;;;;;;11.02;7.50;;;26.70;99.80;;;;;;5026835;28;20045;-83
2022/08/14 08:35:56;;;;;;;8.70;7.30;;;26.70;99.70;;;;;;5031161;28;20113;-82
2022/08/14 08:38:24;;;;;;;8.45;7.53;;;26.70;99.10;;;;;;5023910;28;20513;-78
2022/08/14 08:40:53;;;;;;;7.78;6.90;;;26.80;99.40;;;;;;5024679;28;20049;-81
2022/08/14 08:43:26;;;;;;;10.73;7.00;;;26.80;98.90;;;;;;5020687;28;20077;-78
2022/08/14 08:45:56;;;;;;;7.97;7.18;;;26.90;97.80;;;;;;5019597;28;20056;-79
2022/08/14 08:48:29;;;;;;;10.60;7.70;;;27.00;98.80;;;;;;5028263;28;20045;-82
2022/08/14 08:50:57;;;;;;;8.68;7.80;;;27.00;97.90;;;;;;5030178;28;20048;-82
2022/08/14 08:53:32;;;;;;;8.32;7.25;;;27.10;98.10;;;;;;5026163;28;20045;-83
2022/08/14 08:55:59;;;;;;;8.95;7.30;;;27.20;97.20;;;;;;5027642;28;20088;-79
2022/08/14 08:58:25;;;;;;;8.00;7.20;;;27.30;97.70;;;;;;5029899;28;20098;-79
2022/08/14 09:00:57;;;;;;;17.58;8.00;;;27.30;98.50;;;;;;5030075;28;20041;-81
2022/08/14 09:03:26;;;;;;;8.90;7.45;;;27.40;97.30;;;;;;5026964;28;20174;-78
2022/08/14 09:05:55;;;;;;;9.85;7.88;;;27.40;97.90;;;;;;5025508;28;20378;-78
2022/08/14 09:08:26;;;;;;;9.52;7.75;;;27.40;98.40;;;;;;5028025;28;20068;-83
2022/08/14 09:10:54;;;;;;;8.80;8.00;;;27.50;96.80;;;;;;5024735;28;20041;-88
2022/08/14 09:13:21;;;;;;;8.52;7.72;;;27.60;96.70;;;;;;5027684;28;20045;-85
2022/08/14 09:15:48;;;;;;;9.10;7.47;;;27.60;96.40;;;;;;5029229;28;20041;-80
2022/08/14 09:18:18;;;;;;;8.88;8.05;;;27.70;94.80;;;;;;5025465;28;20038;-78
2022/08/14 09:20:46;;;;;;;9.65;7.97;;;27.70;95.60;;;;;;5031515;28;20099;-79
2022/08/14 09:23:13;;;;;;;8.73;7.93;;;27.70;94.20;;;;;;5025195;28;20045;-80
2022/08/14 09:25:40;;;;;;;8.85;8.02;;;27.80;94.50;;;;;;5029724;28;20593;-80
2022/08/14 09:28:07;;;;;;;11.07;8.27;;;27.80;94.60;;;;;;5026451;28;20181;-81
2022/08/14 09:30:35;;;;;;;8.60;7.80;;;27.80;93.10;;;;;;5030070;28;20074;-81
2022/08/14 09:33:01;;;;;;;8.68;7.75;;;27.80;93.50;;;;;;5028926;28;20096;-81
2022/08/14 09:35:43;;;;;;;8.40;7.60;;;27.90;94.60;;;;;;5026096;28;20473;-80
2022/08/14 09:38:46;;;;;;;8.80;7.88;;;28.00;93.90;;;;;;5027497;28;20048;-79
2022/08/14 09:41:34;;;;;;;8.70;7.80;;;28.10;93.40;;;;;;5019277;28;20049;-79
2022/08/14 09:44:36;;;;;;;9.90;7.85;;;28.10;93.60;;;;;;5028971;28;20053;-80
2022/08/14 09:47:02;;;;;;;8.80;7.93;;;28.20;93.00;;;;;;5028870;28;20046;-78
2022/08/14 09:49:33;;;;;;;8.67;7.87;;;28.30;91.10;;;;;;5022826;28;20039;-79
2022/08/14 09:52:11;;;;;;;9.23;8.38;;;28.40;92.50;;;;;;5024190;28;20064;-79
2022/08/14 09:54:37;;;;;;;9.80;7.25;;;28.50;92.70;;;;;;5018768;28;20045;-79
2022/08/14 09:57:05;;;;;;;8.02;7.22;;;28.50;91.70;;;;;;5026569;28;20045;-75
2022/08/14 09:59:44;;;;;;;7.88;7.00;;;28.60;89.00;;;;;;5023226;28;20060;-76
2022/08/14 10:02:21;;;;;;;8.30;7.40;;;28.60;84.30;;;;;;5026002;28;20049;-78
2022/08/14 10:04:58;;;;;;;9.75;7.32;;;28.70;88.50;;;;;;5027007;28;20049;-79
2022/08/14 10:07:51;;;;;;;9.40;7.50;;;28.70;85.50;;;;;;5028791;28;20041;-79
2022/08/14 10:10:46;;;;;;;8.55;7.38;;;28.70;84.10;;;;;;5031139;28;20061;-78
2022/08/14 10:13:25;;;;;;;8.32;7.53;;;28.80;87.90;;;;;;5012181;28;20064;-80
2022/08/14 10:15:56;;;;;;;9.02;7.32;;;28.90;76.50;;;;;;5020068;28;20033;-75
2022/08/14 10:18:26;;;;;;;9.80;7.32;;;29.00;79.20;;;;;;5032731;28;20449;-79
2022/08/14 10:21:00;;;;;;;7.82;7.13;;;29.10;76.40;;;;;;5019096;28;20069;-79
2022/08/14 10:23:37;;;;;;;8.00;7.30;;;29.20;74.80;;;;;;5024954;28;20091;-80
2022/08/14 10:26:05;;;;;;;9.55;7.30;;;29.30;75.80;;;;;;5017910;28;20099;-77
2022/08/14 10:28:43;;;;;;;7.35;6.65;;;29.30;73.50;;;;;;5026502;28;20033;-78
2022/08/14 10:31:32;;;;;;;8.10;7.28;;;29.40;69.60;;;;;;5019999;28;20053;-78
2022/08/14 10:33:58;;;;;;;7.07;6.43;;;29.50;74.00;;;;;;5021054;28;20061;-80
2022/08/14 10:36:38;;;;;;;7.35;6.65;;;29.50;72.50;;;;;;5026404;28;20041;-76
2022/08/14 10:39:13;;;;;;;8.38;6.65;;;29.50;70.70;;;;;;5023401;28;20041;-78
2022/08/14 10:41:41;;;;;;;7.70;6.75;;;29.50;68.40;;;;;;5026928;28;20774;-79
2022/08/14 10:44:15;;;;;;;7.95;6.55;;;29.60;68.90;;;;;;5028075;28;20049;-79
2022/08/14 10:46:42;;;;;;;7.28;6.47;;;29.70;65.80;;;;;;5026172;28;20101;-79
2022/08/14 10:49:20;;;;;;;7.10;6.40;;;29.70;64.40;;;;;;5019610;28;20030;-79
2022/08/14 10:52:09;;;;;;;7.53;6.75;;;29.80;63.40;;;;;;5023970;28;20068;-80
2022/08/14 10:54:44;;;;;;;7.25;6.45;;;29.90;65.70;;;;;;5025501;28;20056;-80
2022/08/14 10:57:25;;;;;;;7.30;6.20;;;29.90;64.90;;;;;;5021585;28;20049;-78
2022/08/14 10:59:57;;;;;;;8.18;6.72;;;30.00;64.50;;;;;;5022950;28;20515;-77
2022/08/14 11:02:28;;;;;;;7.10;6.50;;;30.10;63.30;;;;;;5027597;28;20439;-82
2022/08/14 11:05:06;;;;;;;7.60;6.40;;;30.10;61.60;;;;;;5025004;28;20493;-82
2022/08/14 11:07:33;;;;;;;6.65;5.97;;;30.10;62.80;;;;;;5024064;28;20041;-84
2022/08/14 11:10:03;;;;;;;6.40;5.82;;;30.20;63.90;;;;;;5019421;28;20049;-82
2022/08/14 11:12:46;;;;;;;6.65;5.88;;;30.40;63.40;;;;;;5020876;28;20664;-79
2022/08/14 11:15:17;;;;;;;5.28;4.78;;;30.50;62.20;;;;;;5027672;28;20053;-82
2022/08/14 11:17:45;;;;;;;7.55;5.43;;;30.60;61.30;;;;;;5022829;28;20080;-81
2022/08/14 11:20:12;;;;;;;6.07;5.50;;;30.60;59.90;;;;;;5025275;28;20463;-84
2022/08/14 11:22:40;;;;;;;6.57;5.38;;;30.60;59.10;;;;;;5027629;28;20037;-81
2022/08/14 11:25:09;;;;;;;6.55;5.68;;;30.70;57.60;;;;;;5024282;28;20041;-82
2022/08/14 11:27:37;;;;;;;6.20;5.60;;;30.80;59.80;;;;;;5025857;28;20433;-81
2022/08/14 11:30:09;;;;;;;9.13;5.90;;;30.90;58.30;;;;;;5028057;28;20045;-81
2022/08/14 11:32:38;;;;;;;5.90;4.97;;;30.90;57.00;;;;;;5028005;28;20045;-79
2022/08/14 11:35:04;;;;;;;5.72;5.20;;;30.90;55.40;;;;;;5028577;28;20041;-82
2022/08/14 11:37:32;;;;;;;5.60;5.10;;;31.00;53.60;;;;;;5026611;28;20139;-79
2022/08/14 11:39:59;;;;;;;6.18;5.57;;;31.00;55.00;;;;;;5023551;28;20397;-79
2022/08/14 11:42:27;;;;;;;5.80;5.13;;;31.00;54.80;;;;;;5031736;28;20407;-80
2022/08/14 11:44:56;;;;;;;6.95;6.00;;;31.10;53.20;;;;;;5026926;28;20092;-78
2022/08/14 11:47:23;;;;;;;6.85;6.20;;;31.10;53.90;;;;;;5021796;28;20297;-81
2022/08/14 11:49:49;;;;;;;7.72;6.15;;;31.00;55.20;;;;;;5020208;28;20056;-81
2022/08/14 11:52:16;;;;;;;7.00;6.07;;;31.00;56.40;;;;;;5022454;28;20046;-82
2022/08/14 11:54:42;;;;;;;8.10;6.20;;;31.00;56.40;;;;;;5022605;28;20053;-80
2022/08/14 11:57:18;;;;;;;6.18;5.57;;;31.10;55.90;;;;;;5028058;28;20099;-86
2022/08/14 11:59:44;;;;;;;8.02;6.03;;;31.20;55.60;;;;;;5031766;28;20050;-79
2022/08/14 12:02:12;;;;;;;6.22;5.30;;;31.30;54.70;;;;;;5024514;28;20045;-76
2022/08/14 12:04:52;;;;;;;6.32;5.72;;;31.40;54.10;;;;;;5031876;28;20572;-79
2022/08/14 12:07:18;;;;;;;8.23;6.10;;;31.50;54.30;;;;;;5027472;28;20103;-79
2022/08/14 12:09:44;;;;;;;;;;;31.70;53.90;;;;;;5031099;28;20408;-79
2022/08/14 12:12:14;;;;;;;8.68;6.30;;;31.60;53.30;;;;;;5028616;28;19929;-80
2022/08/14 12:15:07;;;;;;;8.23;6.25;;;31.50;53.50;;;;;;5028731;28;20389;-80
2022/08/14 12:17:44;;;;;;;6.93;5.93;;;31.60;53.50;;;;;;5025504;28;20496;-79
2022/08/14 12:20:10;;;;;;;7.38;5.95;;;31.70;53.90;;;;;;5028057;28;20092;-80
2022/08/14 12:22:40;;;;;;;7.40;6.00;;;31.70;53.70;;;;;;5031286;28;20060;-80
2022/08/14 12:25:10;;;;;;;10.70;6.45;;;31.60;52.60;;;;;;5028042;28;20053;-80
2022/08/14 12:27:41;;;;;;;6.75;6.05;;;31.50;53.00;;;;;;5031364;28;20048;-78
2022/08/14 12:30:07;;;;;;;7.63;6.07;;;31.60;53.20;;;;;;5027713;28;20051;-80
2022/08/14 12:32:40;;;;;;;;;;;31.70;53.90;;;;;;5033759;28;20041;-76
2022/08/14 12:35:08;;;;;;;7.55;5.95;;;31.70;53.50;;;;;;5030069;28;19964;-78
2022/08/14 12:37:35;;;;;;;7.32;6.18;;;31.70;52.20;;;;;;5025403;28;20767;-79
2022/08/14 12:40:14;;;;;;;6.95;6.22;;;31.80;51.20;;;;;;5028737;28;20493;-81
2022/08/14 12:42:40;;;;;;;7.35;6.03;;;32.00;51.50;;;;;;5025928;28;20045;-81
2022/08/14 12:45:07;;;;;;;7.95;5.88;;;32.20;51.80;;;;;;5030137;28;20053;-78
2022/08/14 12:47:32;;;;;;;6.60;5.95;;;32.30;52.30;;;;;;5029381;28;20041;-79
2022/08/14 12:49:59;;;;;;;7.70;6.70;;;32.50;50.80;;;;;;5030116;28;20060;-75
2022/08/14 12:52:30;;;;;;;6.82;6.13;;;32.60;50.30;;;;;;5028924;28;20821;-73
2022/08/14 12:55:04;;;;;;;9.07;6.30;;;32.50;50.80;;;;;;5029926;28;20041;-79
2022/08/14 12:57:35;;;;;;;7.60;6.40;;;32.50;50.20;;;;;;5043004;28;20443;-82
2022/08/14 13:00:11;;;;;;;7.25;6.55;;;32.70;49.20;;;;;;5025308;28;20063;-80
2022/08/14 13:02:40;;;;;;;8.07;6.53;;;32.80;49.50;;;;;;5026794;28;20460;-87
2022/08/14 13:05:08;;;;;;;7.47;6.22;;;32.80;49.30;;;;;;5030832;28;20455;-83
2022/08/14 13:07:34;;;;;;;9.93;6.20;;;32.80;48.50;;;;;;5025847;28;20072;-86
2022/08/14 13:10:01;;;;;;;8.13;6.28;;;32.70;48.50;;;;;;5029401;28;20514;-86
2022/08/14 13:12:28;;;;;;;8.02;6.07;;;32.60;49.00;;;;;;5029617;28;20192;-84